Time;durP1;ratioP1;P1;durP2;ratioP2;P2;SDS_P1;SDS_P2;PMS_P1;PMS_P2;Temp;Humidity;BMP_temperature;BMP_pressure;BME280_temperature;BME280_humidity;BME280_pressure;Samples;Min_cycle;Max_cycle;Signal;HPM_P1;HPM_P2
2023/07/24 00:02:45;;;;;;;6.68;4.12;;;;;;;21.30;54.59;98388.94;7259158;40;20287;31
2023/07/24 00:13:25;;;;;;;5.32;4.20;;;;;;;21.18;56.02;98368.22;7305332;39;21291;31
2023/07/24 00:23:58;;;;;;;5.12;3.90;;;;;;;21.01;57.27;98360.03;7307150;39;21187;31
2023/07/24 00:29:31;;;;;;;4.60;3.67;;;;;;;21.06;55.68;98355.44;7232822;40;20237;31
2023/07/24 00:35:03;;;;;;;5.30;3.85;;;;;;;21.15;57.16;98355.84;7234904;40;20241;31
2023/07/24 00:40:24;;;;;;;6.20;4.32;;;;;;;21.18;56.42;98340.81;7274708;40;20282;31
2023/07/24 00:45:56;;;;;;;5.90;4.32;;;;;;;21.16;56.92;98327.34;7262837;40;20271;31
2023/07/24 00:51:31;;;;;;;5.03;4.53;;;;;;;21.26;55.99;98327.47;7259086;40;20338;31
2023/07/24 00:57:03;;;;;;;6.90;5.00;;;;;;;21.31;55.38;98322.06;7258419;40;20256;31
2023/07/24 01:02:36;;;;;;;5.80;4.10;;;;;;;21.39;56.45;98321.59;7230389;40;20289;31
2023/07/24 01:08:08;;;;;;;6.20;4.85;;;;;;;21.32;56.58;98310.03;7182480;40;20318;31
2023/07/24 01:13:43;;;;;;;4.93;4.03;;;;;;;21.24;57.30;98309.66;7184768;40;20342;31
2023/07/24 01:19:19;;;;;;;4.85;4.20;;;;;;;21.12;56.68;98318.81;7153279;40;20415;31
2023/07/24 01:24:49;;;;;;;6.15;4.60;;;;;;;21.06;57.40;98319.00;7149635;40;20287;31
2023/07/24 01:30:21;;;;;;;6.20;4.62;;;;;;;21.12;57.07;98315.22;7142951;40;20278;31
2023/07/24 01:35:53;;;;;;;5.85;4.32;;;;;;;21.10;57.96;98309.19;7115890;40;20255;31
2023/07/24 01:41:25;;;;;;;5.60;4.20;;;;;;;21.19;57.08;98304.09;7167292;40;20255;31
2023/07/24 01:46:58;;;;;;;6.87;5.20;;;;;;;21.16;57.51;98299.13;7185188;40;20416;31
2023/07/24 01:52:30;;;;;;;6.20;4.85;;;;;;;21.00;59.50;98279.75;7235104;40;20254;31
2023/07/24 01:57:48;;;;;;;6.57;4.53;;;;;;;20.93;58.95;98281.81;7191992;40;20365;31
2023/07/24 02:03:20;;;;;;;5.55;4.50;;;;;;;21.00;59.26;98287.13;7214982;40;20327;31
2023/07/24 02:08:52;;;;;;;5.10;4.60;;;;;;;21.08;58.46;98264.75;7172442;40;22554;31
2023/07/24 02:14:26;;;;;;;6.62;4.97;;;;;;;21.19;58.64;98271.22;7199786;40;20384;31
2023/07/24 02:20:01;;;;;;;7.35;5.30;;;;;;;21.21;58.61;98266.28;7158822;40;20278;31
2023/07/24 02:25:18;;;;;;;7.07;4.75;;;;;;;21.21;57.22;98258.91;7197288;40;20379;31
2023/07/24 02:30:55;;;;;;;7.20;5.32;;;;;;;21.22;57.80;98255.06;7253338;40;20236;31
2023/07/24 02:36:26;;;;;;;5.35;4.60;;;;;;;21.23;58.56;98251.25;7234741;40;20242;31
2023/07/24 02:41:58;;;;;;;6.80;5.10;;;;;;;21.10;59.19;98248.87;7188478;40;20499;31
2023/07/24 02:47:30;;;;;;;6.05;4.80;;;;;;;21.08;58.07;98235.44;7181785;40;20261;31
2023/07/24 02:53:03;;;;;;;5.68;4.53;;;;;;;20.88;59.76;98224.25;7165769;40;20254;31
2023/07/24 02:58:35;;;;;;;6.30;4.60;;;;;;;20.86;59.61;98220.94;7209453;40;20253;31
2023/07/24 03:03:52;;;;;;;6.47;4.62;;;;;;;20.78;59.36;98220.56;7199908;40;20250;31
2023/07/24 03:09:25;;;;;;;5.20;4.70;;;;;;;20.80;60.36;98204.72;7221973;40;20273;31
2023/07/24 03:20:23;;;;;;;6.40;4.90;;;;;;;20.41;61.73;98203.94;7253372;39;20280;31
2023/07/24 03:25:54;;;;;;;5.85;5.10;;;;;;;20.57;60.86;98195.69;7205764;40;20386;31
2023/07/24 03:31:29;;;;;;;5.72;4.97;;;;;;;20.67;60.78;98192.22;7214648;40;20269;31
2023/07/24 03:37:01;;;;;;;5.40;4.60;;;;;;;20.66;60.01;98180.47;7028926;40;21309;31
2023/07/24 03:42:41;;;;;;;6.00;4.73;;;;;;;20.36;63.14;98180.06;7184626;40;20285;31
2023/07/24 03:48:16;;;;;;;6.00;5.15;;;;;;;20.28;61.81;98194.16;7169605;40;20263;31
2023/07/24 03:53:33;;;;;;;6.20;4.75;;;;;;;20.45;61.52;98199.59;7176695;40;20332;31
2023/07/24 03:59:06;;;;;;;5.82;4.85;;;;;;;20.46;61.09;98207.56;7188785;40;20362;31
2023/07/24 04:04:38;;;;;;;6.20;5.00;;;;;;;20.41;61.02;98182.03;7177072;40;20255;31
2023/07/24 04:09:55;;;;;;;6.95;5.40;;;;;;;20.44;60.98;98196.06;7211003;40;20250;31
2023/07/24 04:15:29;;;;;;;7.43;5.33;;;;;;;20.34;62.95;98193.19;7213500;40;21216;31
2023/07/24 04:20:49;;;;;;;6.60;5.50;;;;;;;20.42;60.88;98184.53;7242175;40;20277;31
2023/07/24 04:26:24;;;;;;;6.75;5.05;;;;;;;20.56;60.84;98182.22;7228376;40;20363;31
2023/07/24 04:32:00;;;;;;;5.83;4.90;;;;;;;20.61;60.44;98191.34;7249820;40;20280;31
2023/07/24 04:37:32;;;;;;;8.23;5.30;;;;;;;20.62;61.21;98194.91;7233494;40;20255;31
2023/07/24 04:43:04;;;;;;;7.40;5.00;;;;;;;20.64;61.00;98188.09;7194413;40;20388;31
2023/07/24 04:48:40;;;;;;;7.63;4.87;;;;;;;20.69;61.34;98190.88;7214564;40;20419;31
2023/07/24 04:53:57;;;;;;;6.80;5.05;;;;;;;20.73;61.27;98179.41;7129242;40;20263;31
2023/07/24 04:59:29;;;;;;;8.32;4.95;;;;;;;20.70;60.66;98172.56;7099312;41;20562;31
2023/07/24 05:05:05;;;;;;;8.53;5.40;;;;;;;20.63;62.71;98193.81;7181146;40;20378;31
2023/07/24 05:10:37;;;;;;;6.60;4.90;;;;;;;20.63;61.34;98202.84;7220629;40;20381;31
2023/07/24 05:16:09;;;;;;;7.10;5.30;;;;;;;20.74;61.88;98192.03;7217734;40;20350;31
2023/07/24 05:21:43;;;;;;;7.10;5.00;;;;;;;20.82;61.43;98188.84;7171393;40;21887;31
2023/07/24 05:27:19;;;;;;;6.53;5.20;;;;;;;20.80;60.34;98191.00;7154879;40;20275;31
2023/07/24 05:32:36;;;;;;;7.35;5.10;;;;;;;20.86;60.68;98201.75;7182199;40;20243;31
2023/07/24 05:38:13;;;;;;;8.10;5.50;;;;;;;20.87;60.47;98208.06;7273753;40;20521;31
2023/07/24 05:43:45;;;;;;;6.53;5.25;;;;;;;20.82;60.52;98203.34;7280948;39;20245;31
2023/07/24 05:49:17;;;;;;;6.30;5.50;;;;;;;20.79;60.47;98203.06;7274297;40;20245;31
2023/07/24 05:54:51;;;;;;;7.50;5.47;;;;;;;20.85;61.09;98207.47;7222368;40;20402;31
2023/07/24 06:00:12;;;;;;;7.12;5.50;;;;;;;20.87;60.99;98200.69;7203715;40;20419;31
2023/07/24 06:05:47;;;;;;;6.90;5.37;;;;;;;21.02;61.51;98200.00;7214480;40;20269;31
2023/07/24 06:11:20;;;;;;;8.15;5.65;;;;;;;21.11;60.39;98192.97;7223677;40;20399;31
2023/07/24 06:16:38;;;;;;;8.63;5.20;;;;;;;21.20;60.91;98193.34;7225055;40;20246;31
2023/07/24 06:22:09;;;;;;;7.90;5.32;;;;;;;21.26;61.72;98195.06;7192715;40;20241;31
2023/07/24 06:27:42;;;;;;;6.20;4.70;;;;;;;21.53;62.14;98195.88;7221535;40;20351;31
2023/07/24 06:32:59;;;;;;;6.03;4.53;;;;;;;21.84;62.83;98184.03;7192355;40;20347;31
2023/07/24 06:38:21;;;;;;;7.40;5.18;;;;;;;22.00;62.25;98206.94;7213599;40;20503;31
2023/07/24 06:43:56;;;;;;;7.57;4.68;;;;;;;22.14;62.22;98204.56;7232897;40;20350;31
2023/07/24 06:49:28;;;;;;;9.73;4.70;;;;;;;22.26;62.43;98214.25;7200310;40;20375;31
2023/07/24 06:55:00;;;;;;;7.50;5.50;;;;;;;22.28;61.47;98209.34;7197798;40;20324;31
2023/07/24 07:00:36;;;;;;;6.90;5.27;;;;;;;22.21;61.64;98210.63;7213481;40;20268;31
2023/07/24 07:06:13;;;;;;;9.57;6.25;;;;;;;22.33;62.01;98203.03;7242532;40;20292;31
2023/07/24 07:16:50;;;;;;;7.53;5.47;;;;;;;22.49;61.83;98215.75;7206658;40;21181;31
2023/07/24 07:27:26;;;;;;;7.95;6.00;;;;;;;22.61;62.30;98207.28;7239722;39;21294;31
2023/07/24 07:33:02;;;;;;;8.18;5.68;;;;;;;22.65;62.14;98219.38;7255907;40;20276;31
2023/07/24 07:38:22;;;;;;;6.05;4.65;;;;;;;22.72;61.74;98218.09;7247218;40;20269;31
2023/07/24 07:43:37;;;;;;;6.73;4.87;;;;;;;22.84;61.94;98217.84;7273033;40;20371;31
2023/07/24 07:49:09;;;;;;;7.77;5.37;;;;;;;22.90;62.10;98216.78;7253712;39;20387;31
2023/07/24 07:54:27;;;;;;;6.05;4.32;;;;;;;23.02;61.77;98222.03;7206272;40;20275;31
2023/07/24 07:59:44;;;;;;;5.55;4.28;;;;;;;23.00;61.83;98208.53;7180781;40;20305;31
2023/07/24 08:10:21;;;;;;;6.90;4.40;;;;;;;23.14;61.76;98215.19;7200123;40;20292;31
2023/07/24 08:20:43;;;;;;;6.85;4.03;;;;;;;23.42;60.68;98171.78;7292764;39;20625;31
2023/07/24 08:31:19;;;;;;;5.80;4.12;;;;;;;23.78;59.81;98187.22;7237637;40;21046;31
2023/07/24 08:41:44;;;;;;;4.50;3.60;;;;;;;23.62;59.18;98163.53;7264148;40;21353;31
2023/07/24 08:52:24;;;;;;;5.74;4.00;;;;;;;24.09;59.00;98174.22;7299253;39;20276;31
2023/07/24 09:03:16;;;;;;;8.07;4.12;;;;;;;24.60;56.90;98147.34;7280128;39;21662;31
2023/07/24 09:08:52;;;;;;;6.15;4.20;;;;;;;24.44;56.13;98157.59;7175027;40;20251;31
2023/07/24 09:14:35;;;;;;;4.57;4.10;;;;;;;24.32;56.51;98162.59;7200813;40;20250;31
2023/07/24 09:20:21;;;;;;;8.35;3.80;;;;;;;24.83;55.33;98154.13;7155298;40;20282;31
2023/07/24 09:30:58;;;;;;;5.65;4.07;;;;;;;25.01;54.47;98159.03;7199365;40;21170;31
2023/07/24 09:36:30;;;;;;;4.85;4.00;;;;;;;24.98;54.32;98143.84;7202103;40;20336;31
2023/07/24 09:42:05;;;;;;;5.30;4.10;;;;;;;24.65;53.58;98109.56;7211511;40;20295;31
2023/07/24 09:47:41;;;;;;;5.87;4.05;;;;;;;24.44;53.79;98116.25;7202450;40;20270;31
2023/07/24 09:53:16;;;;;;;6.97;4.50;;;;;;;24.38;55.14;98155.16;7187689;40;20352;31
2023/07/24 09:58:54;;;;;;;7.53;4.33;;;;;;;24.26;56.45;98162.91;7146664;40;20271;31
2023/07/24 10:04:26;;;;;;;6.20;4.90;;;;;;;24.09;57.63;98161.25;7210948;40;20316;31
2023/07/24 10:10:01;;;;;;;8.55;5.20;;;;;;;23.98;60.66;98156.91;7277295;40;20275;31
2023/07/24 10:15:36;;;;;;;8.55;5.70;;;;;;;23.84;61.81;98157.72;7216461;40;20495;31
2023/07/24 10:21:14;;;;;;;9.10;5.70;;;;;;;23.82;61.38;98160.78;7211586;40;20261;31
2023/07/24 10:26:46;;;;;;;7.40;5.35;;;;;;;23.87;61.63;98159.94;7025687;40;20233;31
2023/07/24 10:32:23;;;;;;;10.55;5.65;;;;;;;23.82;61.50;98166.28;7193606;40;20440;31
2023/07/24 10:37:59;;;;;;;8.40;5.46;;;;;;;23.72;62.28;98169.03;7204153;40;20464;31
2023/07/24 10:43:35;;;;;;;8.67;5.90;;;;;;;23.73;63.42;98166.03;7193585;40;20311;31
2023/07/24 10:48:55;;;;;;;12.25;6.43;;;;;;;23.73;64.05;98156.94;7167990;40;20330;31
2023/07/24 10:54:31;;;;;;;8.63;6.73;;;;;;;23.69;65.79;98153.94;7178682;40;20278;31
2023/07/24 11:05:07;;;;;;;12.85;7.12;;;;;;;23.56;66.91;98148.97;7227907;40;21174;31
2023/07/24 11:10:40;;;;;;;9.43;6.23;;;;;;;23.65;65.77;98147.28;7212595;40;20334;31
2023/07/24 11:21:19;;;;;;;16.70;6.40;;;;;;;23.85;65.48;98157.47;7274291;40;21194;31
2023/07/24 11:31:57;;;;;;;9.15;5.82;;;;;;;24.07;65.81;98127.69;7235129;40;20281;31
2023/07/24 11:37:25;;;;;;;11.05;5.95;;;;;;;24.10;64.63;98127.13;7272148;40;20370;31
2023/07/24 11:48:05;;;;;;;8.50;6.17;;;;;;;24.12;66.14;98135.94;7273951;40;21563;31
2023/07/24 11:53:40;;;;;;;8.60;6.35;;;;;;;23.99;65.79;98124.69;7261923;40;20260;31
2023/07/24 11:59:24;;;;;;;8.17;6.07;;;;;;;23.86;65.80;98106.81;7258183;40;20435;31
2023/07/24 12:05:00;;;;;;;8.75;6.25;;;;;;;23.73;66.31;98033.09;7234508;40;20257;31
2023/07/24 12:10:40;;;;;;;13.00;6.60;;;;;;;24.30;68.15;98060.16;7185012;40;20445;31
2023/07/24 12:16:15;;;;;;;11.40;6.30;;;;;;;24.70;67.34;98078.41;7147732;40;20258;31
2023/07/24 12:21:51;;;;;;;9.18;6.05;;;;;;;24.87;63.55;98076.12;7154458;40;20264;31
2023/07/24 12:27:26;;;;;;;6.55;5.40;;;;;;;24.81;62.91;98081.91;7184427;40;20257;31
2023/07/24 12:32:46;;;;;;;7.90;5.77;;;;;;;25.05;62.51;98063.56;7176635;40;20340;31
2023/07/24 12:38:22;;;;;;;8.65;6.50;;;;;;;25.11;61.49;98073.44;7195057;40;20262;31
2023/07/24 12:43:57;;;;;;;8.10;6.00;;;;;;;25.05;62.57;98069.91;7160359;40;20279;31
2023/07/24 12:49:17;;;;;;;7.45;5.85;;;;;;;25.42;61.54;98077.56;7224201;40;20253;31
2023/07/24 12:54:53;;;;;;;7.95;5.90;;;;;;;25.55;59.93;98065.91;7247022;40;20455;31
2023/07/24 13:00:26;;;;;;;8.90;6.20;;;;;;;25.28;58.79;98051.78;7265551;40;20302;31
2023/07/24 13:05:59;;;;;;;9.10;6.10;;;;;;;25.12;60.00;98034.53;7245884;40;20343;31
2023/07/24 13:11:34;;;;;;;8.80;6.10;;;;;;;25.04;60.90;98004.00;7223346;40;20446;31
2023/07/24 13:17:07;;;;;;;7.68;6.00;;;;;;;25.61;60.08;97978.34;7224842;40;20547;31
2023/07/24 13:22:27;;;;;;;7.90;5.30;;;;;;;26.07;57.02;97969.47;7205020;40;20246;31
2023/07/24 13:28:02;;;;;;;6.85;5.45;;;;;;;26.12;55.89;97969.41;7238637;40;20462;31
2023/07/24 13:33:21;;;;;;;7.70;6.00;;;;;;;26.23;56.33;97971.78;7166961;40;20567;31
2023/07/24 13:38:54;;;;;;;7.62;6.18;;;;;;;25.87;56.83;97970.56;7250188;40;20469;31
2023/07/24 13:44:27;;;;;;;7.20;5.80;;;;;;;25.58;58.24;97965.16;7246394;40;20273;31
2023/07/24 13:49:48;;;;;;;6.62;5.90;;;;;;;25.10;58.58;97944.91;7278406;39;20530;31
2023/07/24 13:55:08;;;;;;;10.35;6.50;;;;;;;24.80;60.27;97932.22;7253667;40;20328;31
2023/07/24 14:00:42;;;;;;;8.60;6.15;;;;;;;24.69;61.17;97944.44;7224502;40;20448;31
2023/07/24 14:06:17;;;;;;;7.97;5.83;;;;;;;24.51;62.15;97975.44;7171951;40;20262;31
2023/07/24 14:11:52;;;;;;;5.33;4.53;;;;;;;24.45;65.57;97979.34;7176446;40;20354;31
2023/07/24 14:17:28;;;;;;;7.18;4.97;;;;;;;24.15;66.24;98011.47;7210945;40;20257;31
2023/07/24 14:22:49;;;;;;;7.03;5.05;;;;;;;23.94;67.94;98018.16;7193876;40;20312;31
2023/07/24 14:28:09;;;;;;;5.57;3.92;;;;;;;23.69;67.37;98032.00;7186562;40;20266;31
2023/07/24 14:33:41;;;;;;;5.62;4.10;;;;;;;23.62;67.93;98047.97;7194351;40;20491;31
2023/07/24 14:44:17;;;;;;;4.10;3.60;;;;;;;23.88;67.94;98012.94;7193582;40;20270;31
2023/07/24 14:49:53;;;;;;;4.00;3.25;;;;;;;24.16;67.49;98009.56;7172601;40;20345;31
2023/07/24 15:00:18;;;;;;;3.70;2.62;;;;;;;24.51;66.33;98008.50;7294826;39;20283;31
2023/07/24 15:10:56;;;;;;;3.05;2.40;;;;;;;24.73;63.27;97977.75;7297394;39;21188;31
2023/07/24 15:21:32;;;;;;;2.97;2.28;;;;;;;25.02;62.03;98015.31;7282872;39;21056;31
2023/07/24 15:32:12;;;;;;;3.60;2.35;;;;;;;25.30;62.05;98024.72;7272613;40;21282;31
2023/07/24 15:37:48;;;;;;;2.60;2.40;;;;;;;25.50;61.23;98034.72;7255153;40;20257;31
2023/07/24 15:43:19;;;;;;;2.40;1.93;;;;;;;25.52;58.83;98038.03;7244230;40;20462;31
2023/07/24 15:48:55;;;;;;;2.30;1.90;;;;;;;25.58;58.45;98040.47;7217618;40;20246;31
2023/07/24 15:54:30;;;;;;;2.50;1.90;;;;;;;25.47;57.66;98024.28;7189955;40;20284;31
2023/07/24 16:00:07;;;;;;;1.65;1.55;;;;;;;25.22;57.50;98011.56;7164043;40;20247;31
2023/07/24 16:05:41;;;;;;;1.52;1.42;;;;;;;25.23;56.99;98018.72;7199699;40;20276;31
2023/07/24 16:11:13;;;;;;;1.85;1.62;;;;;;;25.19;57.12;98000.28;7125404;40;20247;31
2023/07/24 16:16:33;;;;;;;1.40;1.30;;;;;;;25.11;56.50;98008.06;7110986;40;20269;31
2023/07/24 16:22:09;;;;;;;3.40;1.70;;;;;;;25.11;56.78;98013.59;7167701;40;20247;31
2023/07/24 16:27:44;;;;;;;1.70;1.50;;;;;;;25.40;55.97;98012.78;7210978;40;20331;31
2023/07/24 16:33:19;;;;;;;2.00;1.60;;;;;;;25.58;54.34;98005.72;7215001;40;20360;31
2023/07/24 16:38:55;;;;;;;2.40;1.55;;;;;;;25.57;53.94;98010.41;7172014;40;20255;31
2023/07/24 16:44:15;;;;;;;2.10;1.40;;;;;;;25.59;53.39;98016.44;7243803;40;20265;31
2023/07/24 16:49:35;;;;;;;1.80;1.60;;;;;;;25.31;52.47;98020.88;7241851;40;20428;31
2023/07/24 16:55:11;;;;;;;2.20;1.70;;;;;;;25.24;53.09;98030.56;7237670;40;20248;31
2023/07/24 17:00:46;;;;;;;2.47;1.52;;;;;;;25.08;52.66;98039.00;7235968;40;20375;31
2023/07/24 17:06:03;;;;;;;1.77;1.47;;;;;;;25.02;52.82;98040.13;7213868;40;20274;31
2023/07/24 17:16:39;;;;;;;3.12;1.50;;;;;;;24.89;53.38;98057.34;7181877;40;21134;31
2023/07/24 17:21:56;;;;;;;2.33;1.80;;;;;;;24.78;53.50;98060.44;7025818;40;20257;31
2023/07/24 17:27:16;;;;;;;1.83;1.63;;;;;;;24.56;51.43;98074.63;7253913;40;20358;31
2023/07/24 17:32:50;;;;;;;3.50;1.70;;;;;;;24.40;52.07;98073.03;7235520;40;20241;31
2023/07/24 17:38:25;;;;;;;2.17;1.60;;;;;;;24.37;53.11;98079.13;7271651;39;20419;31
2023/07/24 17:44:00;;;;;;;2.00;1.60;;;;;;;24.30;53.57;98086.88;7253096;40;20257;31
2023/07/24 17:49:38;;;;;;;4.35;1.80;;;;;;;24.26;52.22;98096.81;7230452;40;20296;31
2023/07/24 18:00:11;;;;;;;3.95;1.90;;;;;;;24.08;54.22;98088.03;7175714;40;21148;31
2023/07/24 18:05:47;;;;;;;2.73;1.77;;;;;;;24.04;54.33;98086.97;7211454;40;20276;31
2023/07/24 18:11:05;;;;;;;2.55;1.90;;;;;;;24.00;53.67;98096.84;7227538;40;20289;31
2023/07/24 18:16:25;;;;;;;2.10;1.70;;;;;;;23.93;54.18;98088.06;7275141;39;20478;31
2023/07/24 18:22:01;;;;;;;1.70;1.60;;;;;;;23.83;53.74;98096.34;7280942;39;20249;31
2023/07/24 18:27:22;;;;;;;4.85;1.65;;;;;;;23.74;53.32;98096.09;7257551;40;20298;31
2023/07/24 18:32:39;;;;;;;2.17;1.70;;;;;;;23.71;53.77;98109.59;7236944;40;20797;31
2023/07/24 18:38:15;;;;;;;1.73;1.62;;;;;;;23.60;52.83;98107.97;7280198;39;20346;31
2023/07/24 18:43:50;;;;;;;1.90;1.70;;;;;;;23.61;53.28;98109.59;7235168;40;20276;31
2023/07/24 18:49:10;;;;;;;3.05;1.70;;;;;;;23.62;53.16;98112.09;7242971;40;20433;31
2023/07/24 18:54:48;;;;;;;2.50;1.90;;;;;;;23.62;51.92;98128.59;7224602;40;20273;31
2023/07/24 19:00:18;;;;;;;1.95;1.58;;;;;;;23.50;52.82;98139.06;7194426;40;20266;31
2023/07/24 19:05:54;;;;;;;2.00;1.70;;;;;;;23.39;50.84;98137.38;7172412;40;21251;31
2023/07/24 19:11:29;;;;;;;3.00;1.70;;;;;;;23.35;51.63;98139.84;7146293;40;20283;31
2023/07/24 19:16:50;;;;;;;2.30;1.70;;;;;;;23.37;52.20;98150.59;7153677;40;20568;31
2023/07/24 19:22:09;;;;;;;1.95;1.70;;;;;;;23.28;52.31;98147.56;7160981;40;20267;31
2023/07/24 19:27:43;;;;;;;2.25;1.80;;;;;;;23.28;51.78;98152.22;7172260;40;20442;31
2023/07/24 19:33:01;;;;;;;3.05;1.60;;;;;;;23.20;51.85;98153.62;7171699;40;20288;31
2023/07/24 19:43:38;;;;;;;2.20;1.60;;;;;;;23.13;51.81;98152.19;7248624;40;20438;31
2023/07/24 19:49:14;;;;;;;2.85;1.70;;;;;;;23.08;51.37;98143.97;7269399;40;20264;31
2023/07/24 19:54:32;;;;;;;3.00;1.70;;;;;;;23.05;51.87;98136.25;7213598;40;20273;31
2023/07/24 20:05:07;;;;;;;2.33;2.05;;;;;;;22.79;51.67;98144.47;7219070;40;21178;31
2023/07/24 20:15:29;;;;;;;2.03;1.60;;;;;;;22.61;52.06;98155.91;7214763;40;21060;31
2023/07/24 20:26:07;;;;;;;1.85;1.52;;;;;;;22.29;52.75;98161.53;7271727;40;21157;31
2023/07/24 20:36:29;;;;;;;2.05;1.80;;;;;;;21.99;53.63;98161.38;7240349;40;21144;31
2023/07/24 20:42:04;;;;;;;2.70;1.80;;;;;;;21.83;53.65;98165.94;7276945;40;20354;31
2023/07/24 20:47:36;;;;;;;1.85;1.60;;;;;;;21.83;53.94;98156.87;7249946;40;20295;31
2023/07/24 20:53:09;;;;;;;2.28;1.80;;;;;;;21.76;54.24;98164.50;7213755;40;20250;31
2023/07/24 20:58:41;;;;;;;2.35;1.65;;;;;;;21.66;55.26;98167.16;7196565;40;20258;31
2023/07/24 21:03:59;;;;;;;1.80;1.65;;;;;;;21.54;55.20;98170.91;7135025;40;20259;31
2023/07/24 21:09:31;;;;;;;2.05;1.77;;;;;;;21.44;55.29;98161.78;7185650;40;20249;31
2023/07/24 21:15:06;;;;;;;4.45;1.90;;;;;;;21.40;55.29;98166.97;7161525;40;20265;31
2023/07/24 21:20:24;;;;;;;2.30;2.00;;;;;;;21.44;56.11;98164.53;7179660;40;20273;31
2023/07/24 21:26:05;;;;;;;4.43;1.90;;;;;;;21.16;57.13;98173.03;7239887;40;20265;31
2023/07/24 21:31:41;;;;;;;1.95;1.77;;;;;;;20.72;56.72;98175.84;7170205;40;20304;31
2023/07/24 21:42:21;;;;;;;3.12;1.80;;;;;;;20.52;58.66;98160.03;7173008;40;20290;31
2023/07/24 21:47:54;;;;;;;3.62;2.17;;;;;;;20.44;58.51;98165.94;7228347;40;20278;31
2023/07/24 21:53:11;;;;;;;2.55;1.80;;;;;;;20.32;58.44;98173.44;7199388;40;20356;31
2023/07/24 21:58:29;;;;;;;2.80;2.15;;;;;;;20.21;59.07;98171.63;7217018;40;20345;31
2023/07/24 22:04:04;;;;;;;4.90;2.08;;;;;;;20.30;60.28;98175.62;7187357;40;21062;31
2023/07/24 22:09:39;;;;;;;2.72;2.40;;;;;;;20.49;59.66;98178.87;7089767;41;20279;31
2023/07/24 22:15:14;;;;;;;3.30;2.00;;;;;;;20.57;58.42;98175.69;7114142;41;20317;31
2023/07/24 22:25:54;;;;;;;2.85;1.90;;;;;;;20.41;58.82;98182.03;7180508;40;20387;31
2023/07/24 22:31:14;;;;;;;4.22;1.87;;;;;;;20.57;59.03;98179.25;7217714;40;20273;31
2023/07/24 22:41:50;;;;;;;3.17;1.77;;;;;;;20.73;58.61;98182.97;7273890;40;20317;31
2023/07/24 22:52:29;;;;;;;2.60;2.20;;;;;;;20.83;59.29;98187.75;7261484;40;20264;31
2023/07/24 23:03:09;;;;;;;3.10;1.80;;;;;;;20.85;59.28;98182.81;7260956;40;20282;31
2023/07/24 23:13:33;;;;;;;3.90;2.00;;;;;;;20.97;58.82;98167.91;7231356;40;20339;31
2023/07/24 23:19:07;;;;;;;3.45;1.80;;;;;;;21.00;58.67;98174.78;7274836;40;20256;31
2023/07/24 23:24:42;;;;;;;4.28;2.25;;;;;;;20.99;60.32;98160.25;7251576;39;20252;31
2023/07/24 23:30:17;;;;;;;2.25;1.95;;;;;;;21.03;60.24;98149.59;7230895;40;20304;31
2023/07/24 23:35:51;;;;;;;3.85;2.10;;;;;;;20.96;60.63;98158.03;7192717;40;20330;31
2023/07/24 23:41:08;;;;;;;5.30;2.00;;;;;;;20.85;61.14;98134.34;7203807;40;20257;31
2023/07/24 23:46:25;;;;;;;2.35;1.90;;;;;;;20.82;61.38;98139.53;7234453;40;20249;31
2023/07/24 23:51:59;;;;;;;1.98;1.85;;;;;;;20.63;63.02;98120.69;7228833;40;20266;31
2023/07/24 23:57:19;;;;;;;2.50;1.85;;;;;;;20.39;62.75;98113.03;7156773;40;20282;31
